sensor_id;sensor_type;location;lat;lon;timestamp;P1;P2;P0
69224;PMS1003;56333;51.306;17.056;2024-01-30T00:01:44;17.40;10.30;
69224;PMS1003;56333;51.306;17.056;2024-01-30T00:03:08;17.20;10.30;
69224;PMS1003;56333;51.306;17.056;2024-01-30T00:04:32;17.00;10.50;
69224;PMS1003;56333;51.306;17.056;2024-01-30T00:05:56;16.30;10.80;
69224;PMS1003;56333;51.306;17.056;2024-01-30T00:07:20;13.40;5.00;
69224;PMS1003;56333;51.306;17.056;2024-01-30T00:08:44;14.60;9.80;
69224;PMS1003;56333;51.306;17.056;2024-01-30T00:10:11;16.60;9.90;
69224;PMS1003;56333;51.306;17.056;2024-01-30T00:11:35;16.40;9.80;
69224;PMS1003;56333;51.306;17.056;2024-01-30T00:13:00;14.30;9.50;
69224;PMS1003;56333;51.306;17.056;2024-01-30T00:14:25;6.90;2.80;
69224;PMS1003;56333;51.306;17.056;2024-01-30T00:15:49;15.70;10.50;
69224;PMS1003;56333;51.306;17.056;2024-01-30T00:17:14;14.90;9.80;
69224;PMS1003;56333;51.306;17.056;2024-01-30T00:18:38;16.10;10.20;
69224;PMS1003;56333;51.306;17.056;2024-01-30T00:20:04;14.60;5.70;
69224;PMS1003;56333;51.306;17.056;2024-01-30T00:21:31;15.60;10.30;
69224;PMS1003;56333;51.306;17.056;2024-01-30T00:22:55;17.20;10.10;
69224;PMS1003;56333;51.306;17.056;2024-01-30T00:24:20;15.00;5.70;
69224;PMS1003;56333;51.306;17.056;2024-01-30T00:25:43;17.20;10.70;
69224;PMS1003;56333;51.306;17.056;2024-01-30T00:27:09;16.50;6.40;
69224;PMS1003;56333;51.306;17.056;2024-01-30T00:28:33;16.00;10.60;
69224;PMS1003;56333;51.306;17.056;2024-01-30T00:29:57;18.50;6.50;
69224;PMS1003;56333;51.306;17.056;2024-01-30T00:31:21;16.60;10.00;
69224;PMS1003;56333;51.306;17.056;2024-01-30T00:32:45;15.00;9.90;
69224;PMS1003;56333;51.306;17.056;2024-01-30T00:34:09;17.10;10.60;
69224;PMS1003;56333;51.306;17.056;2024-01-30T00:35:33;6.40;3.20;
69224;PMS1003;56333;51.306;17.056;2024-01-30T00:36:57;16.20;10.20;
69224;PMS1003;56333;51.306;17.056;2024-01-30T00:38:22;16.50;10.00;
69224;PMS1003;56333;51.306;17.056;2024-01-30T00:39:46;14.70;10.10;
69224;PMS1003;56333;51.306;17.056;2024-01-30T00:41:10;17.50;11.00;
69224;PMS1003;56333;51.306;17.056;2024-01-30T00:42:34;16.20;11.10;
69224;PMS1003;56333;51.306;17.056;2024-01-30T00:43:58;14.90;10.40;
69224;PMS1003;56333;51.306;17.056;2024-01-30T00:45:23;15.80;11.10;
69224;PMS1003;56333;51.306;17.056;2024-01-30T00:46:47;11.50;4.80;
69224;PMS1003;56333;51.306;17.056;2024-01-30T00:48:11;16.50;10.50;
69224;PMS1003;56333;51.306;17.056;2024-01-30T00:49:35;16.00;10.70;
69224;PMS1003;56333;51.306;17.056;2024-01-30T00:50:59;14.50;10.20;
69224;PMS1003;56333;51.306;17.056;2024-01-30T00:52:23;15.80;10.70;
69224;PMS1003;56333;51.306;17.056;2024-01-30T00:53:47;16.90;10.60;
69224;PMS1003;56333;51.306;17.056;2024-01-30T00:55:12;13.10;5.30;
69224;PMS1003;56333;51.306;17.056;2024-01-30T00:56:36;18.20;10.80;
69224;PMS1003;56333;51.306;17.056;2024-01-30T00:58:01;16.80;6.20;
69224;PMS1003;56333;51.306;17.056;2024-01-30T00:59:26;11.10;4.70;
69224;PMS1003;56333;51.306;17.056;2024-01-30T01:00:50;15.70;10.40;
69224;PMS1003;56333;51.306;17.056;2024-01-30T01:02:15;17.70;10.80;
69224;PMS1003;56333;51.306;17.056;2024-01-30T01:03:40;12.70;5.50;
69224;PMS1003;56333;51.306;17.056;2024-01-30T01:05:07;18.00;10.90;
69224;PMS1003;56333;51.306;17.056;2024-01-30T01:06:31;11.30;5.00;
69224;PMS1003;56333;51.306;17.056;2024-01-30T01:07:55;13.70;5.90;
69224;PMS1003;56333;51.306;17.056;2024-01-30T01:09:19;15.90;10.30;
69224;PMS1003;56333;51.306;17.056;2024-01-30T01:10:44;15.80;10.40;
69224;PMS1003;56333;51.306;17.056;2024-01-30T01:12:08;16.90;10.40;
69224;PMS1003;56333;51.306;17.056;2024-01-30T01:13:32;15.00;10.30;
69224;PMS1003;56333;51.306;17.056;2024-01-30T01:14:56;15.40;10.00;
69224;PMS1003;56333;51.306;17.056;2024-01-30T01:16:20;12.60;5.00;
69224;PMS1003;56333;51.306;17.056;2024-01-30T01:17:44;10.00;4.20;
69224;PMS1003;56333;51.306;17.056;2024-01-30T01:19:09;17.00;10.00;
69224;PMS1003;56333;51.306;17.056;2024-01-30T01:20:33;15.60;9.80;
69224;PMS1003;56333;51.306;17.056;2024-01-30T01:21:57;13.60;9.30;
69224;PMS1003;56333;51.306;17.056;2024-01-30T01:23:21;14.70;9.40;
69224;PMS1003;56333;51.306;17.056;2024-01-30T01:24:45;10.50;3.30;
69224;PMS1003;56333;51.306;17.056;2024-01-30T01:26:09;15.50;9.50;
69224;PMS1003;56333;51.306;17.056;2024-01-30T01:27:33;14.30;9.90;
69224;PMS1003;56333;51.306;17.056;2024-01-30T01:29:02;11.30;4.80;
69224;PMS1003;56333;51.306;17.056;2024-01-30T01:30:32;13.30;9.10;
69224;PMS1003;56333;51.306;17.056;2024-01-30T01:31:56;15.20;9.20;
69224;PMS1003;56333;51.306;17.056;2024-01-30T01:33:21;13.30;9.00;
69224;PMS1003;56333;51.306;17.056;2024-01-30T01:34:45;15.30;9.60;
69224;PMS1003;56333;51.306;17.056;2024-01-30T01:36:09;14.30;9.70;
69224;PMS1003;56333;51.306;17.056;2024-01-30T01:37:33;14.80;9.70;
69224;PMS1003;56333;51.306;17.056;2024-01-30T01:38:58;10.20;4.00;
69224;PMS1003;56333;51.306;17.056;2024-01-30T01:40:23;15.70;9.60;
69224;PMS1003;56333;51.306;17.056;2024-01-30T01:41:49;15.70;9.20;
69224;PMS1003;56333;51.306;17.056;2024-01-30T01:43:13;14.70;9.20;
69224;PMS1003;56333;51.306;17.056;2024-01-30T01:44:37;15.00;9.50;
69224;PMS1003;56333;51.306;17.056;2024-01-30T01:46:01;12.40;8.80;
69224;PMS1003;56333;51.306;17.056;2024-01-30T01:47:27;9.00;3.50;
69224;PMS1003;56333;51.306;17.056;2024-01-30T01:48:52;7.00;3.40;
69224;PMS1003;56333;51.306;17.056;2024-01-30T01:50:17;13.90;8.80;
69224;PMS1003;56333;51.306;17.056;2024-01-30T01:51:42;12.60;8.80;
69224;PMS1003;56333;51.306;17.056;2024-01-30T01:53:08;13.20;8.40;
69224;PMS1003;56333;51.306;17.056;2024-01-30T01:54:32;12.50;8.50;
69224;PMS1003;56333;51.306;17.056;2024-01-30T01:55:57;13.30;5.30;
69224;PMS1003;56333;51.306;17.056;2024-01-30T01:57:21;14.30;9.00;
69224;PMS1003;56333;51.306;17.056;2024-01-30T01:58:47;8.30;3.70;
69224;PMS1003;56333;51.306;17.056;2024-01-30T02:00:14;11.30;4.90;
69224;PMS1003;56333;51.306;17.056;2024-01-30T02:01:39;12.30;5.40;
69224;PMS1003;56333;51.306;17.056;2024-01-30T02:03:05;13.50;9.10;
69224;PMS1003;56333;51.306;17.056;2024-01-30T02:04:29;14.10;9.40;
69224;PMS1003;56333;51.306;17.056;2024-01-30T02:05:55;13.30;8.70;
69224;PMS1003;56333;51.306;17.056;2024-01-30T02:07:20;13.40;8.60;
69224;PMS1003;56333;51.306;17.056;2024-01-30T02:08:44;13.30;8.60;
69224;PMS1003;56333;51.306;17.056;2024-01-30T02:10:10;12.60;8.50;
69224;PMS1003;56333;51.306;17.056;2024-01-30T02:11:35;13.50;8.70;
69224;PMS1003;56333;51.306;17.056;2024-01-30T02:12:59;15.90;9.10;
69224;PMS1003;56333;51.306;17.056;2024-01-30T02:14:23;11.80;4.00;
69224;PMS1003;56333;51.306;17.056;2024-01-30T02:15:51;12.70;8.80;
69224;PMS1003;56333;51.306;17.056;2024-01-30T02:17:16;14.70;8.80;
69224;PMS1003;56333;51.306;17.056;2024-01-30T02:18:40;12.10;8.30;
69224;PMS1003;56333;51.306;17.056;2024-01-30T02:20:10;8.20;4.10;
69224;PMS1003;56333;51.306;17.056;2024-01-30T02:21:35;11.30;7.90;
69224;PMS1003;56333;51.306;17.056;2024-01-30T02:22:59;13.50;8.40;
69224;PMS1003;56333;51.306;17.056;2024-01-30T02:24:24;13.20;8.50;
69224;PMS1003;56333;51.306;17.056;2024-01-30T02:25:49;12.60;8.20;
69224;PMS1003;56333;51.306;17.056;2024-01-30T02:27:16;12.00;8.30;
69224;PMS1003;56333;51.306;17.056;2024-01-30T02:28:40;11.70;8.10;
69224;PMS1003;56333;51.306;17.056;2024-01-30T02:30:08;13.70;8.10;
69224;PMS1003;56333;51.306;17.056;2024-01-30T02:31:33;11.50;7.90;
69224;PMS1003;56333;51.306;17.056;2024-01-30T02:32:57;11.60;7.60;
69224;PMS1003;56333;51.306;17.056;2024-01-30T02:34:21;12.80;8.60;
69224;PMS1003;56333;51.306;17.056;2024-01-30T02:35:46;11.80;8.00;
69224;PMS1003;56333;51.306;17.056;2024-01-30T02:37:10;8.20;3.40;
69224;PMS1003;56333;51.306;17.056;2024-01-30T02:38:34;12.40;7.40;
69224;PMS1003;56333;51.306;17.056;2024-01-30T02:39:59;11.50;8.10;
69224;PMS1003;56333;51.306;17.056;2024-01-30T02:41:23;12.40;7.80;
69224;PMS1003;56333;51.306;17.056;2024-01-30T02:42:47;11.40;7.70;
69224;PMS1003;56333;51.306;17.056;2024-01-30T02:44:11;11.50;7.90;
69224;PMS1003;56333;51.306;17.056;2024-01-30T02:45:35;10.70;7.50;
69224;PMS1003;56333;51.306;17.056;2024-01-30T02:46:59;12.30;7.60;
69224;PMS1003;56333;51.306;17.056;2024-01-30T02:48:24;11.30;7.80;
69224;PMS1003;56333;51.306;17.056;2024-01-30T02:49:48;9.80;7.20;
69224;PMS1003;56333;51.306;17.056;2024-01-30T02:51:12;11.70;8.00;
69224;PMS1003;56333;51.306;17.056;2024-01-30T02:52:36;11.90;7.80;
69224;PMS1003;56333;51.306;17.056;2024-01-30T02:54:00;12.60;7.80;
69224;PMS1003;56333;51.306;17.056;2024-01-30T02:55:24;12.60;8.30;
69224;PMS1003;56333;51.306;17.056;2024-01-30T02:56:48;8.70;3.00;
69224;PMS1003;56333;51.306;17.056;2024-01-30T02:58:13;9.60;7.10;
69224;PMS1003;56333;51.306;17.056;2024-01-30T02:59:37;10.50;4.40;
69224;PMS1003;56333;51.306;17.056;2024-01-30T03:01:01;12.00;7.30;
69224;PMS1003;56333;51.306;17.056;2024-01-30T03:02:25;11.40;7.20;
69224;PMS1003;56333;51.306;17.056;2024-01-30T03:03:49;11.40;7.50;
69224;PMS1003;56333;51.306;17.056;2024-01-30T03:05:14;9.70;6.80;
69224;PMS1003;56333;51.306;17.056;2024-01-30T03:06:38;10.50;7.50;
69224;PMS1003;56333;51.306;17.056;2024-01-30T03:08:03;13.90;7.70;
69224;PMS1003;56333;51.306;17.056;2024-01-30T03:09:28;10.60;7.70;
69224;PMS1003;56333;51.306;17.056;2024-01-30T03:10:51;10.90;7.60;
69224;PMS1003;56333;51.306;17.056;2024-01-30T03:12:16;10.80;7.60;
69224;PMS1003;56333;51.306;17.056;2024-01-30T03:13:40;11.30;7.70;
69224;PMS1003;56333;51.306;17.056;2024-01-30T03:15:06;13.90;8.10;
69224;PMS1003;56333;51.306;17.056;2024-01-30T03:16:32;11.00;8.10;
69224;PMS1003;56333;51.306;17.056;2024-01-30T03:17:56;10.50;4.30;
69224;PMS1003;56333;51.306;17.056;2024-01-30T03:19:20;9.10;4.00;
69224;PMS1003;56333;51.306;17.056;2024-01-30T03:20:44;11.30;7.40;
69224;PMS1003;56333;51.306;17.056;2024-01-30T03:22:08;11.20;7.60;
69224;PMS1003;56333;51.306;17.056;2024-01-30T03:23:32;13.30;7.30;
69224;PMS1003;56333;51.306;17.056;2024-01-30T03:24:56;14.00;7.50;
69224;PMS1003;56333;51.306;17.056;2024-01-30T03:26:21;12.30;7.40;
69224;PMS1003;56333;51.306;17.056;2024-01-30T03:27:45;11.50;4.80;
69224;PMS1003;56333;51.306;17.056;2024-01-30T03:29:09;11.70;8.10;
69224;PMS1003;56333;51.306;17.056;2024-01-30T03:30:34;11.40;7.50;
69224;PMS1003;56333;51.306;17.056;2024-01-30T03:31:58;12.20;8.00;
69224;PMS1003;56333;51.306;17.056;2024-01-30T03:33:23;12.30;7.60;
69224;PMS1003;56333;51.306;17.056;2024-01-30T03:34:47;12.10;8.40;
69224;PMS1003;56333;51.306;17.056;2024-01-30T03:36:12;10.40;4.60;
69224;PMS1003;56333;51.306;17.056;2024-01-30T03:37:36;13.10;8.50;
69224;PMS1003;56333;51.306;17.056;2024-01-30T03:39:00;12.20;8.10;
69224;PMS1003;56333;51.306;17.056;2024-01-30T03:40:24;12.30;8.40;
69224;PMS1003;56333;51.306;17.056;2024-01-30T03:41:49;11.80;5.30;
69224;PMS1003;56333;51.306;17.056;2024-01-30T03:43:13;13.50;8.50;
69224;PMS1003;56333;51.306;17.056;2024-01-30T03:44:37;12.60;8.50;
69224;PMS1003;56333;51.306;17.056;2024-01-30T03:46:02;11.90;8.10;
69224;PMS1003;56333;51.306;17.056;2024-01-30T03:47:26;12.30;8.30;
69224;PMS1003;56333;51.306;17.056;2024-01-30T03:48:50;9.70;4.60;
69224;PMS1003;56333;51.306;17.056;2024-01-30T03:50:15;14.00;9.00;
69224;PMS1003;56333;51.306;17.056;2024-01-30T03:51:39;13.90;8.90;
69224;PMS1003;56333;51.306;17.056;2024-01-30T03:53:04;15.90;9.00;
69224;PMS1003;56333;51.306;17.056;2024-01-30T03:54:28;14.40;9.40;
69224;PMS1003;56333;51.306;17.056;2024-01-30T03:55:52;12.20;8.80;
69224;PMS1003;56333;51.306;17.056;2024-01-30T03:57:16;12.30;8.90;
69224;PMS1003;56333;51.306;17.056;2024-01-30T03:58:40;11.60;5.00;
69224;PMS1003;56333;51.306;17.056;2024-01-30T04:00:09;10.40;4.70;
69224;PMS1003;56333;51.306;17.056;2024-01-30T04:01:37;13.30;9.20;
69224;PMS1003;56333;51.306;17.056;2024-01-30T04:03:00;13.00;4.90;
69224;PMS1003;56333;51.306;17.056;2024-01-30T04:04:25;13.60;9.30;
69224;PMS1003;56333;51.306;17.056;2024-01-30T04:05:49;13.40;9.20;
69224;PMS1003;56333;51.306;17.056;2024-01-30T04:07:14;14.50;9.50;
69224;PMS1003;56333;51.306;17.056;2024-01-30T04:08:38;14.70;9.80;
69224;PMS1003;56333;51.306;17.056;2024-01-30T04:10:04;11.00;4.30;
69224;PMS1003;56333;51.306;17.056;2024-01-30T04:11:29;14.20;8.80;
69224;PMS1003;56333;51.306;17.056;2024-01-30T04:12:53;14.10;5.80;
69224;PMS1003;56333;51.306;17.056;2024-01-30T04:14:17;13.70;9.10;
69224;PMS1003;56333;51.306;17.056;2024-01-30T04:15:42;14.20;8.90;
69224;PMS1003;56333;51.306;17.056;2024-01-30T04:17:06;14.10;8.90;
69224;PMS1003;56333;51.306;17.056;2024-01-30T04:18:30;15.30;10.20;
69224;PMS1003;56333;51.306;17.056;2024-01-30T04:19:54;15.10;10.10;
69224;PMS1003;56333;51.306;17.056;2024-01-30T04:21:21;13.20;5.70;
69224;PMS1003;56333;51.306;17.056;2024-01-30T04:22:45;21.20;15.10;
69224;PMS1003;56333;51.306;17.056;2024-01-30T04:24:09;19.60;7.30;
69224;PMS1003;56333;51.306;17.056;2024-01-30T04:25:37;26.90;17.80;
69224;PMS1003;56333;51.306;17.056;2024-01-30T04:27:01;25.30;9.80;
69224;PMS1003;56333;51.306;17.056;2024-01-30T04:28:25;24.00;16.10;
69224;PMS1003;56333;51.306;17.056;2024-01-30T04:29:49;22.10;15.80;
69224;PMS1003;56333;51.306;17.056;2024-01-30T04:31:14;19.30;7.90;
69224;PMS1003;56333;51.306;17.056;2024-01-30T04:32:38;18.20;13.40;
69224;PMS1003;56333;51.306;17.056;2024-01-30T04:34:02;21.00;13.70;
69224;PMS1003;56333;51.306;17.056;2024-01-30T04:35:26;21.20;14.00;
69224;PMS1003;56333;51.306;17.056;2024-01-30T04:36:50;16.30;7.80;
69224;PMS1003;56333;51.306;17.056;2024-01-30T04:38:14;16.00;7.00;
69224;PMS1003;56333;51.306;17.056;2024-01-30T04:39:39;19.00;13.00;
69224;PMS1003;56333;51.306;17.056;2024-01-30T04:41:04;17.20;7.60;
69224;PMS1003;56333;51.306;17.056;2024-01-30T04:42:27;19.10;12.10;
69224;PMS1003;56333;51.306;17.056;2024-01-30T04:43:52;17.60;12.40;
69224;PMS1003;56333;51.306;17.056;2024-01-30T04:45:16;15.80;7.00;
69224;PMS1003;56333;51.306;17.056;2024-01-30T04:46:40;17.70;12.10;
69224;PMS1003;56333;51.306;17.056;2024-01-30T04:48:07;14.10;5.30;
69224;PMS1003;56333;51.306;17.056;2024-01-30T04:49:31;16.00;6.90;
69224;PMS1003;56333;51.306;17.056;2024-01-30T04:50:55;19.80;12.80;
69224;PMS1003;56333;51.306;17.056;2024-01-30T04:52:19;18.50;13.10;
69224;PMS1003;56333;51.306;17.056;2024-01-30T04:53:44;14.70;6.60;
69224;PMS1003;56333;51.306;17.056;2024-01-30T04:55:09;17.90;12.50;
69224;PMS1003;56333;51.306;17.056;2024-01-30T04:56:33;18.10;12.20;
69224;PMS1003;56333;51.306;17.056;2024-01-30T04:57:58;15.40;5.90;
69224;PMS1003;56333;51.306;17.056;2024-01-30T04:59:22;19.60;9.30;
69224;PMS1003;56333;51.306;17.056;2024-01-30T05:00:46;17.50;11.10;
69224;PMS1003;56333;51.306;17.056;2024-01-30T05:02:14;18.70;12.30;
69224;PMS1003;56333;51.306;17.056;2024-01-30T05:03:39;19.20;12.10;
69224;PMS1003;56333;51.306;17.056;2024-01-30T05:05:06;15.30;6.90;
69224;PMS1003;56333;51.306;17.056;2024-01-30T05:06:30;10.40;4.90;
69224;PMS1003;56333;51.306;17.056;2024-01-30T05:07:55;16.60;11.00;
69224;PMS1003;56333;51.306;17.056;2024-01-30T05:09:19;16.60;11.80;
69224;PMS1003;56333;51.306;17.056;2024-01-30T05:10:43;14.50;5.60;
69224;PMS1003;56333;51.306;17.056;2024-01-30T05:12:08;16.70;7.50;
69224;PMS1003;56333;51.306;17.056;2024-01-30T05:13:32;16.90;12.20;
69224;PMS1003;56333;51.306;17.056;2024-01-30T05:14:56;15.70;11.40;
69224;PMS1003;56333;51.306;17.056;2024-01-30T05:16:20;18.00;12.10;
69224;PMS1003;56333;51.306;17.056;2024-01-30T05:17:44;14.00;5.80;
69224;PMS1003;56333;51.306;17.056;2024-01-30T05:19:08;18.20;11.30;
69224;PMS1003;56333;51.306;17.056;2024-01-30T05:20:32;20.50;7.30;
69224;PMS1003;56333;51.306;17.056;2024-01-30T05:21:57;17.40;11.70;
69224;PMS1003;56333;51.306;17.056;2024-01-30T05:23:21;17.70;12.20;
69224;PMS1003;56333;51.306;17.056;2024-01-30T05:24:45;18.10;12.10;
69224;PMS1003;56333;51.306;17.056;2024-01-30T05:26:09;14.70;6.40;
69224;PMS1003;56333;51.306;17.056;2024-01-30T05:27:33;19.20;13.10;
69224;PMS1003;56333;51.306;17.056;2024-01-30T05:28:58;19.90;9.40;
69224;PMS1003;56333;51.306;17.056;2024-01-30T05:30:21;18.10;12.00;
69224;PMS1003;56333;51.306;17.056;2024-01-30T05:31:46;13.10;6.40;
69224;PMS1003;56333;51.306;17.056;2024-01-30T05:33:10;13.00;5.20;
69224;PMS1003;56333;51.306;17.056;2024-01-30T05:34:36;19.30;13.30;
69224;PMS1003;56333;51.306;17.056;2024-01-30T05:36:00;11.10;5.80;
69224;PMS1003;56333;51.306;17.056;2024-01-30T05:37:24;19.10;12.00;
69224;PMS1003;56333;51.306;17.056;2024-01-30T05:38:48;18.50;12.70;
69224;PMS1003;56333;51.306;17.056;2024-01-30T05:40:14;18.30;13.10;
69224;PMS1003;56333;51.306;17.056;2024-01-30T05:41:39;11.70;5.20;
69224;PMS1003;56333;51.306;17.056;2024-01-30T05:43:03;18.60;7.40;
69224;PMS1003;56333;51.306;17.056;2024-01-30T05:44:27;17.90;13.10;
69224;PMS1003;56333;51.306;17.056;2024-01-30T05:45:51;18.90;12.70;
69224;PMS1003;56333;51.306;17.056;2024-01-30T05:47:15;19.50;13.50;
69224;PMS1003;56333;51.306;17.056;2024-01-30T05:48:39;17.40;7.40;
69224;PMS1003;56333;51.306;17.056;2024-01-30T05:50:06;13.70;5.50;
69224;PMS1003;56333;51.306;17.056;2024-01-30T05:51:31;15.60;10.20;
69224;PMS1003;56333;51.306;17.056;2024-01-30T05:52:55;11.40;5.20;
69224;PMS1003;56333;51.306;17.056;2024-01-30T05:54:19;17.20;10.90;
69224;PMS1003;56333;51.306;17.056;2024-01-30T05:55:43;18.60;11.90;
69224;PMS1003;56333;51.306;17.056;2024-01-30T05:57:07;19.20;13.20;
69224;PMS1003;56333;51.306;17.056;2024-01-30T05:58:31;15.30;5.50;
69224;PMS1003;56333;51.306;17.056;2024-01-30T05:59:55;19.90;12.60;
69224;PMS1003;56333;51.306;17.056;2024-01-30T06:01:20;18.90;13.40;
69224;PMS1003;56333;51.306;17.056;2024-01-30T06:02:44;11.30;4.20;
69224;PMS1003;56333;51.306;17.056;2024-01-30T06:04:08;15.50;6.40;
69224;PMS1003;56333;51.306;17.056;2024-01-30T06:05:33;19.70;7.60;
69224;PMS1003;56333;51.306;17.056;2024-01-30T06:06:57;18.90;12.80;
69224;PMS1003;56333;51.306;17.056;2024-01-30T06:08:24;18.10;12.50;
69224;PMS1003;56333;51.306;17.056;2024-01-30T06:09:48;21.00;9.60;
69224;PMS1003;56333;51.306;17.056;2024-01-30T06:11:12;16.00;6.60;
69224;PMS1003;56333;51.306;17.056;2024-01-30T06:12:37;14.00;6.70;
69224;PMS1003;56333;51.306;17.056;2024-01-30T06:14:01;19.00;12.20;
69224;PMS1003;56333;51.306;17.056;2024-01-30T06:15:25;16.60;11.80;
69224;PMS1003;56333;51.306;17.056;2024-01-30T06:16:50;13.30;6.00;
69224;PMS1003;56333;51.306;17.056;2024-01-30T06:18:14;18.80;11.90;
69224;PMS1003;56333;51.306;17.056;2024-01-30T06:19:38;19.50;12.80;
69224;PMS1003;56333;51.306;17.056;2024-01-30T06:21:02;15.50;6.50;
69224;PMS1003;56333;51.306;17.056;2024-01-30T06:22:28;10.00;4.80;
69224;PMS1003;56333;51.306;17.056;2024-01-30T06:23:52;12.00;5.70;
69224;PMS1003;56333;51.306;17.056;2024-01-30T06:25:16;18.40;11.20;
69224;PMS1003;56333;51.306;17.056;2024-01-30T06:26:41;11.30;5.10;
69224;PMS1003;56333;51.306;17.056;2024-01-30T06:28:06;14.30;5.60;
69224;PMS1003;56333;51.306;17.056;2024-01-30T06:29:30;16.80;11.70;
69224;PMS1003;56333;51.306;17.056;2024-01-30T06:30:54;18.30;11.40;
69224;PMS1003;56333;51.306;17.056;2024-01-30T06:32:19;17.20;11.90;
69224;PMS1003;56333;51.306;17.056;2024-01-30T06:33:43;16.50;6.70;
69224;PMS1003;56333;51.306;17.056;2024-01-30T06:35:09;17.80;11.70;
69224;PMS1003;56333;51.306;17.056;2024-01-30T06:36:33;18.00;11.50;
69224;PMS1003;56333;51.306;17.056;2024-01-30T06:37:57;14.40;5.70;
69224;PMS1003;56333;51.306;17.056;2024-01-30T06:39:21;16.60;10.90;
69224;PMS1003;56333;51.306;17.056;2024-01-30T06:40:46;16.90;6.50;
69224;PMS1003;56333;51.306;17.056;2024-01-30T06:42:10;13.10;6.20;
69224;PMS1003;56333;51.306;17.056;2024-01-30T06:43:34;13.20;5.30;
69224;PMS1003;56333;51.306;17.056;2024-01-30T06:44:58;16.80;11.00;
69224;PMS1003;56333;51.306;17.056;2024-01-30T06:46:22;17.00;11.70;
69224;PMS1003;56333;51.306;17.056;2024-01-30T06:47:47;17.60;10.90;
69224;PMS1003;56333;51.306;17.056;2024-01-30T06:49:11;18.00;11.20;
69224;PMS1003;56333;51.306;17.056;2024-01-30T06:50:35;12.80;4.80;
69224;PMS1003;56333;51.306;17.056;2024-01-30T06:51:59;14.20;5.90;
69224;PMS1003;56333;51.306;17.056;2024-01-30T06:53:23;12.50;5.50;
69224;PMS1003;56333;51.306;17.056;2024-01-30T06:54:48;18.30;12.10;
69224;PMS1003;56333;51.306;17.056;2024-01-30T06:56:13;17.10;11.90;
69224;PMS1003;56333;51.306;17.056;2024-01-30T06:57:37;14.40;6.40;
69224;PMS1003;56333;51.306;17.056;2024-01-30T06:59:01;19.10;11.20;
69224;PMS1003;56333;51.306;17.056;2024-01-30T07:00:25;10.50;4.60;
69224;PMS1003;56333;51.306;17.056;2024-01-30T07:01:50;16.00;10.50;
69224;PMS1003;56333;51.306;17.056;2024-01-30T07:03:14;18.40;11.00;
69224;PMS1003;56333;51.306;17.056;2024-01-30T07:04:38;16.00;10.80;
69224;PMS1003;56333;51.306;17.056;2024-01-30T07:06:04;14.50;6.30;
69224;PMS1003;56333;51.306;17.056;2024-01-30T07:07:28;14.90;5.70;
69224;PMS1003;56333;51.306;17.056;2024-01-30T07:08:52;15.60;10.80;
69224;PMS1003;56333;51.306;17.056;2024-01-30T07:10:17;18.20;6.40;
69224;PMS1003;56333;51.306;17.056;2024-01-30T07:11:41;17.30;10.70;
69224;PMS1003;56333;51.306;17.056;2024-01-30T07:13:05;16.10;11.00;
69224;PMS1003;56333;51.306;17.056;2024-01-30T07:14:31;11.90;5.60;
69224;PMS1003;56333;51.306;17.056;2024-01-30T07:15:55;17.30;6.70;
69224;PMS1003;56333;51.306;17.056;2024-01-30T07:17:19;16.70;11.30;
69224;PMS1003;56333;51.306;17.056;2024-01-30T07:18:44;15.00;6.60;
69224;PMS1003;56333;51.306;17.056;2024-01-30T07:20:11;14.90;10.70;
69224;PMS1003;56333;51.306;17.056;2024-01-30T07:21:35;12.60;5.60;
69224;PMS1003;56333;51.306;17.056;2024-01-30T07:22:59;19.90;12.80;
69224;PMS1003;56333;51.306;17.056;2024-01-30T07:24:23;18.50;12.60;
69224;PMS1003;56333;51.306;17.056;2024-01-30T07:25:47;21.80;16.20;
69224;PMS1003;56333;51.306;17.056;2024-01-30T07:27:11;17.90;12.90;
69224;PMS1003;56333;51.306;17.056;2024-01-30T07:28:35;20.50;14.70;
69224;PMS1003;56333;51.306;17.056;2024-01-30T07:30:00;20.40;8.20;
69224;PMS1003;56333;51.306;17.056;2024-01-30T07:31:24;25.30;11.60;
69224;PMS1003;56333;51.306;17.056;2024-01-30T07:32:48;18.30;13.20;
69224;PMS1003;56333;51.306;17.056;2024-01-30T07:34:13;18.60;8.60;
69224;PMS1003;56333;51.306;17.056;2024-01-30T07:35:37;18.30;11.40;
69224;PMS1003;56333;51.306;17.056;2024-01-30T07:37:01;22.20;16.30;
69224;PMS1003;56333;51.306;17.056;2024-01-30T07:38:25;22.50;15.20;
69224;PMS1003;56333;51.306;17.056;2024-01-30T07:39:49;28.80;13.20;
69224;PMS1003;56333;51.306;17.056;2024-01-30T07:41:13;24.50;19.40;
69224;PMS1003;56333;51.306;17.056;2024-01-30T07:42:37;22.20;17.30;
69224;PMS1003;56333;51.306;17.056;2024-01-30T07:44:03;22.50;16.80;
69224;PMS1003;56333;51.306;17.056;2024-01-30T07:45:27;20.30;13.40;
69224;PMS1003;56333;51.306;17.056;2024-01-30T07:46:55;19.10;9.60;
69224;PMS1003;56333;51.306;17.056;2024-01-30T07:48:19;13.70;7.00;
69224;PMS1003;56333;51.306;17.056;2024-01-30T07:49:44;21.80;13.00;
69224;PMS1003;56333;51.306;17.056;2024-01-30T07:51:08;25.50;18.20;
69224;PMS1003;56333;51.306;17.056;2024-01-30T07:52:32;24.20;17.90;
69224;PMS1003;56333;51.306;17.056;2024-01-30T07:53:56;25.50;16.60;
69224;PMS1003;56333;51.306;17.056;2024-01-30T07:55:20;24.70;18.10;
69224;PMS1003;56333;51.306;17.056;2024-01-30T07:56:47;21.40;14.90;
69224;PMS1003;56333;51.306;17.056;2024-01-30T07:58:11;23.30;17.90;
69224;PMS1003;56333;51.306;17.056;2024-01-30T07:59:35;27.60;17.20;
69224;PMS1003;56333;51.306;17.056;2024-01-30T08:00:59;21.00;13.80;
69224;PMS1003;56333;51.306;17.056;2024-01-30T08:02:24;21.80;13.60;
69224;PMS1003;56333;51.306;17.056;2024-01-30T08:03:49;15.90;11.40;
69224;PMS1003;56333;51.306;17.056;2024-01-30T08:05:13;16.80;11.30;
69224;PMS1003;56333;51.306;17.056;2024-01-30T08:06:38;19.30;14.60;
69224;PMS1003;56333;51.306;17.056;2024-01-30T08:08:03;17.90;7.00;
69224;PMS1003;56333;51.306;17.056;2024-01-30T08:09:28;15.10;10.40;
69224;PMS1003;56333;51.306;17.056;2024-01-30T08:10:52;16.40;11.10;
69224;PMS1003;56333;51.306;17.056;2024-01-30T08:12:16;14.90;10.10;
69224;PMS1003;56333;51.306;17.056;2024-01-30T08:13:40;16.10;10.70;
69224;PMS1003;56333;51.306;17.056;2024-01-30T08:15:07;16.70;10.90;
69224;PMS1003;56333;51.306;17.056;2024-01-30T08:16:32;14.30;10.50;
69224;PMS1003;56333;51.306;17.056;2024-01-30T08:17:56;16.80;7.20;
69224;PMS1003;56333;51.306;17.056;2024-01-30T08:19:21;10.40;4.70;
69224;PMS1003;56333;51.306;17.056;2024-01-30T08:20:45;15.40;10.30;
69224;PMS1003;56333;51.306;17.056;2024-01-30T08:22:11;15.50;10.50;
69224;PMS1003;56333;51.306;17.056;2024-01-30T08:23:37;12.80;5.80;
69224;PMS1003;56333;51.306;17.056;2024-01-30T08:25:02;17.00;11.00;
69224;PMS1003;56333;51.306;17.056;2024-01-30T08:26:26;17.30;10.90;
69224;PMS1003;56333;51.306;17.056;2024-01-30T08:27:51;16.90;10.30;